Terminal Aerodrome Forecast
Issued by NWS

Current Version | Previous Version | Text Only | Print | Product List | Glossary Off
Versions: 1 2 3 4 5 6 7 8 9 10 11 12 13 14 15 16 17 18 19 20 21 22 23 24

000
FTUS41 KRLX 151500 AAC
TAFCKB
TAF AMD
KCKB 151508Z 1515/1612 00000KT 3SM BR BKN002
      TEMPO 1515/1516 2SM BR BKN015
     FM151600 VRB03KT P6SM BKN020
     FM151700 VRB04KT P6SM FEW020 SCT150=

USA.gov is the U.S. government's official web portal to all federal, state and local government web resources and services.